Time;durP1;ratioP1;P1;durP2;ratioP2;P2;SDS_P1;SDS_P2;PMS_P1;PMS_P2;Temp;Humidity;BMP_temperature;BMP_pressure;BME280_temperature;BME280_humidity;BME280_pressure;Samples;Min_cycle;Max_cycle;Signal;HPM_P1;HPM_P2
2023/09/24 00:00:00;;;;;;;6.20;3.95;;;11.90;99.90;;;;;;4963540;28;20038;-68
2023/09/24 00:02:28;;;;;;;5.60;3.17;;;11.80;99.90;;;;;;4979952;28;20491;-67
2023/09/24 00:04:53;;;;;;;5.72;3.60;;;11.80;99.90;;;;;;4979880;28;20426;-68
2023/09/24 00:07:20;;;;;;;7.10;4.25;;;11.80;99.90;;;;;;4979134;28;20100;-68
2023/09/24 00:09:46;;;;;;;8.20;4.55;;;11.80;99.90;;;;;;4963396;28;20117;-68
2023/09/24 00:12:12;;;;;;;6.80;4.95;;;11.80;99.90;;;;;;4995675;28;20096;-68
2023/09/24 00:14:40;;;;;;;8.68;4.57;;;11.80;99.90;;;;;;4995714;28;20046;-68
2023/09/24 00:17:11;;;;;;;5.85;3.83;;;11.80;99.90;;;;;;4995732;28;20061;-68
2023/09/24 00:19:37;;;;;;;5.18;3.20;;;11.80;99.90;;;;;;4979546;28;20050;-68
2023/09/24 00:22:12;;;;;;;9.55;5.82;;;11.70;99.90;;;;;;4979504;28;20111;-68
2023/09/24 00:24:38;;;;;;;5.38;2.97;;;11.80;99.90;;;;;;4963424;28;20149;-68
2023/09/24 00:27:04;;;;;;;6.55;3.40;;;11.70;99.90;;;;;;4979205;28;20046;-68
2023/09/24 00:29:36;;;;;;;5.97;3.38;;;11.70;99.90;;;;;;4995290;28;20046;-68
2023/09/24 00:32:02;;;;;;;5.28;3.40;;;11.80;99.90;;;;;;4995092;28;20136;-70
2023/09/24 00:34:28;;;;;;;5.53;3.10;;;11.70;99.90;;;;;;4979239;28;20128;-69
2023/09/24 00:36:54;;;;;;;5.60;3.20;;;11.70;99.90;;;;;;4962762;28;20046;-68
2023/09/24 00:39:19;;;;;;;5.50;3.20;;;11.70;99.90;;;;;;4978893;28;20078;-67
2023/09/24 00:41:45;;;;;;;5.30;3.10;;;11.70;99.90;;;;;;4962634;28;20088;-68
2023/09/24 00:44:15;;;;;;;5.53;3.00;;;11.70;99.90;;;;;;4995141;28;20550;-68
2023/09/24 00:46:46;;;;;;;6.95;3.55;;;11.70;99.90;;;;;;4995191;28;20046;-69
2023/09/24 00:49:13;;;;;;;7.88;4.82;;;11.70;99.90;;;;;;4979084;28;20053;-69
2023/09/24 00:51:41;;;;;;;5.72;3.03;;;11.60;99.90;;;;;;4978876;28;20089;-69
2023/09/24 00:54:09;;;;;;;7.38;3.90;;;11.60;99.90;;;;;;4979109;28;20133;-69
2023/09/24 00:56:35;;;;;;;7.60;3.70;;;11.60;99.90;;;;;;4995321;28;20043;-69
2023/09/24 00:59:02;;;;;;;7.28;3.38;;;11.50;99.90;;;;;;4979124;28;20042;-69
2023/09/24 01:01:29;;;;;;;6.10;4.00;;;11.50;99.90;;;;;;4978510;28;20052;-69
2023/09/24 01:03:55;;;;;;;6.35;3.50;;;11.50;99.90;;;;;;4995270;28;20057;-68
2023/09/24 01:06:21;;;;;;;5.00;2.72;;;11.40;99.90;;;;;;4979252;28;20101;-69
2023/09/24 01:08:56;;;;;;;6.20;3.75;;;11.40;99.90;;;;;;4965749;28;20050;-68
2023/09/24 01:11:24;;;;;;;6.20;2.88;;;11.40;99.90;;;;;;4979481;28;20050;-68
2023/09/24 01:13:50;;;;;;;66.53;6.20;;;11.40;99.90;;;;;;4995509;28;20050;-68
2023/09/24 01:16:16;;;;;;;6.72;3.88;;;11.40;99.90;;;;;;4978781;28;20050;-70
2023/09/24 01:19:01;;;;;;;5.57;3.33;;;11.30;99.90;;;;;;4994681;28;20053;-69
2023/09/24 01:21:27;;;;;;;36.40;4.95;;;11.30;99.90;;;;;;4979805;28;20116;-69
2023/09/24 01:23:55;;;;;;;7.75;4.88;;;11.40;99.90;;;;;;4978287;28;20133;-70
2023/09/24 01:26:24;;;;;;;6.40;3.95;;;11.30;99.90;;;;;;4978364;28;20125;-68
2023/09/24 01:29:13;;;;;;;8.23;4.68;;;11.30;99.90;;;;;;4978550;28;20044;-69
2023/09/24 01:31:39;;;;;;;7.55;4.72;;;11.30;99.90;;;;;;4988366;28;20081;-69
2023/09/24 01:34:05;;;;;;;7.18;4.40;;;11.30;99.90;;;;;;4994564;28;20081;-70
2023/09/24 01:36:32;;;;;;;37.22;7.95;;;11.20;99.90;;;;;;4978401;28;20070;-69
2023/09/24 01:38:58;;;;;;;29.45;7.45;;;11.20;99.90;;;;;;4993975;28;20046;-69
2023/09/24 01:41:25;;;;;;;122.70;12.18;;;11.30;99.90;;;;;;4961738;28;20129;-67
2023/09/24 01:43:52;;;;;;;239.45;17.42;;;11.30;99.90;;;;;;4993993;28;20073;-68
2023/09/24 01:46:20;;;;;;;19.50;6.63;;;11.30;99.90;;;;;;4994171;28;20046;-69
2023/09/24 01:48:54;;;;;;;47.88;7.97;;;11.30;99.90;;;;;;4978012;28;20572;-70
2023/09/24 01:51:20;;;;;;;145.63;13.48;;;11.30;99.90;;;;;;4993875;28;20042;-69
2023/09/24 01:53:48;;;;;;;89.72;12.30;;;11.30;99.90;;;;;;4977691;28;20108;-68
2023/09/24 01:56:14;;;;;;;64.88;8.43;;;11.40;99.90;;;;;;4991331;28;20054;-68
2023/09/24 01:58:39;;;;;;;261.98;22.55;;;11.40;99.90;;;;;;4993732;28;20046;-69
2023/09/24 02:01:07;;;;;;;71.50;9.60;;;11.40;99.90;;;;;;4977457;28;20072;-68
2023/09/24 02:03:33;;;;;;;57.50;9.70;;;11.40;99.90;;;;;;4993736;28;20038;-67
2023/09/24 02:05:58;;;;;;;109.75;14.52;;;11.40;99.90;;;;;;4993466;28;20049;-68
2023/09/24 02:08:24;;;;;;;33.50;10.23;;;11.40;99.90;;;;;;4993433;28;20521;-68
2023/09/24 02:10:50;;;;;;;56.10;9.60;;;11.40;99.90;;;;;;4993402;28;20045;-67
2023/09/24 02:13:16;;;;;;;32.28;8.15;;;11.50;99.90;;;;;;4992341;28;20129;-68
2023/09/24 02:15:45;;;;;;;71.07;10.68;;;11.50;99.90;;;;;;4993075;28;20096;-67
2023/09/24 02:18:12;;;;;;;41.40;9.00;;;11.50;99.90;;;;;;4976844;28;20101;-70
2023/09/24 02:20:41;;;;;;;84.32;13.75;;;11.50;99.90;;;;;;4977276;28;20042;-68
2023/09/24 02:23:08;;;;;;;140.30;16.73;;;11.50;99.90;;;;;;4976955;28;20049;-67
2023/09/24 02:25:38;;;;;;;31.08;7.75;;;11.50;99.90;;;;;;4994325;28;20042;-67
2023/09/24 02:28:05;;;;;;;78.05;11.40;;;11.50;99.90;;;;;;4993729;28;20043;-67
2023/09/24 02:30:31;;;;;;;42.80;8.10;;;11.60;99.90;;;;;;4993196;28;20039;-67
2023/09/24 02:32:58;;;;;;;32.65;9.20;;;11.50;99.90;;;;;;4976741;28;20069;-68
2023/09/24 02:35:25;;;;;;;125.72;14.73;;;11.50;99.90;;;;;;4993173;28;20073;-68
2023/09/24 02:37:52;;;;;;;19.55;8.73;;;11.50;99.90;;;;;;4993191;28;20050;-68
2023/09/24 02:40:23;;;;;;;13.25;8.13;;;11.50;99.90;;;;;;4977260;28;20053;-68
2023/09/24 02:42:53;;;;;;;14.75;8.90;;;11.50;99.90;;;;;;4978076;28;20112;-68
2023/09/24 02:45:19;;;;;;;15.88;8.80;;;11.50;99.90;;;;;;4961007;28;20185;-68
2023/09/24 02:47:46;;;;;;;143.40;17.35;;;11.50;99.90;;;;;;4960983;28;20044;-68
2023/09/24 02:50:15;;;;;;;49.33;11.98;;;11.50;99.90;;;;;;4992877;28;20045;-68
2023/09/24 02:52:48;;;;;;;25.40;10.27;;;11.50;99.90;;;;;;4977275;28;20041;-69
2023/09/24 02:55:15;;;;;;;50.40;11.88;;;11.50;99.90;;;;;;4993385;28;20051;-68
2023/09/24 02:57:43;;;;;;;12.02;7.80;;;11.40;99.90;;;;;;4992993;28;20108;-69
2023/09/24 03:02:58;;;;;;;20.27;10.45;;;11.40;99.90;;;;;;4993448;28;20113;-69
2023/09/24 03:05:25;;;;;;;33.70;10.57;;;11.30;99.90;;;;;;4992395;28;20042;-70
2023/09/24 03:07:53;;;;;;;32.33;9.88;;;11.30;99.90;;;;;;4992774;28;20490;-69
2023/09/24 03:10:19;;;;;;;53.22;11.20;;;11.30;99.90;;;;;;4976560;28;20042;-70
2023/09/24 03:12:46;;;;;;;63.35;11.00;;;11.30;99.90;;;;;;4977086;28;20038;-69
2023/09/24 03:15:12;;;;;;;65.95;10.85;;;11.30;99.90;;;;;;4994028;28;20577;-69
2023/09/24 03:17:40;;;;;;;19.70;8.43;;;11.30;99.90;;;;;;4976621;28;20046;-69
2023/09/24 03:20:19;;;;;;;12.95;8.85;;;11.20;99.90;;;;;;4960474;28;20256;-69
2023/09/24 03:22:50;;;;;;;26.10;9.82;;;11.20;99.90;;;;;;4992874;28;20050;-69
2023/09/24 03:25:23;;;;;;;11.63;8.38;;;11.10;99.90;;;;;;4977768;28;20046;-69
2023/09/24 03:27:51;;;;;;;65.97;14.73;;;11.10;99.90;;;;;;4996330;28;20124;-69
2023/09/24 03:30:18;;;;;;;10.93;8.18;;;11.00;99.90;;;;;;4996276;28;20074;-69
2023/09/24 03:32:45;;;;;;;30.05;9.70;;;11.00;99.90;;;;;;4996523;28;20042;-69
2023/09/24 03:35:11;;;;;;;19.33;9.02;;;11.00;99.90;;;;;;4996374;28;20074;-69
2023/09/24 03:37:37;;;;;;;11.80;8.65;;;11.00;99.90;;;;;;4980071;28;20084;-69
2023/09/24 03:40:11;;;;;;;14.93;8.70;;;10.90;99.90;;;;;;4980230;28;20045;-69
2023/09/24 03:42:38;;;;;;;97.68;14.50;;;10.90;99.90;;;;;;4996212;28;20061;-69
2023/09/24 03:45:06;;;;;;;10.95;7.60;;;10.90;99.90;;;;;;4996096;28;20038;-70
2023/09/24 03:47:32;;;;;;;7.60;6.30;;;10.90;99.90;;;;;;4996263;28;20081;-70
2023/09/24 03:49:58;;;;;;;12.88;9.07;;;10.80;99.90;;;;;;4995848;28;20078;-70
2023/09/24 03:52:23;;;;;;;10.45;8.00;;;10.80;99.90;;;;;;4995886;28;20053;-69
2023/09/24 03:54:50;;;;;;;14.15;9.35;;;10.80;99.90;;;;;;4979918;28;20053;-69
2023/09/24 03:57:16;;;;;;;11.90;8.18;;;10.80;99.90;;;;;;4979577;28;20073;-69
2023/09/24 03:59:41;;;;;;;9.85;7.47;;;10.70;99.90;;;;;;4995950;28;20096;-69
2023/09/24 04:02:08;;;;;;;7.07;5.50;;;10.70;99.90;;;;;;4995892;28;20038;-69
2023/09/24 04:04:36;;;;;;;11.20;8.02;;;10.70;99.90;;;;;;4979476;28;20500;-69
2023/09/24 04:07:03;;;;;;;7.93;6.22;;;10.70;99.90;;;;;;4995876;28;20039;-68
2023/09/24 04:09:32;;;;;;;8.63;6.57;;;10.70;99.90;;;;;;4995218;28;20050;-68
2023/09/24 04:12:00;;;;;;;9.50;7.25;;;10.70;99.90;;;;;;4995503;28;20076;-69
2023/09/24 04:14:26;;;;;;;19.20;9.75;;;10.60;99.90;;;;;;4996088;28;20042;-68
2023/09/24 04:16:52;;;;;;;29.20;12.32;;;10.60;99.90;;;;;;4979372;28;20042;-68
2023/09/24 04:19:18;;;;;;;9.13;6.18;;;10.50;99.90;;;;;;4963470;28;20038;-68
2023/09/24 04:21:45;;;;;;;9.57;6.90;;;10.50;99.90;;;;;;4979310;28;20096;-67
2023/09/24 04:24:13;;;;;;;16.77;9.77;;;10.50;99.90;;;;;;4995354;28;20084;-67
2023/09/24 04:26:40;;;;;;;13.15;8.73;;;10.50;99.90;;;;;;4995700;28;20550;-67
2023/09/24 04:29:06;;;;;;;8.13;5.68;;;10.40;99.90;;;;;;4979642;28;20100;-67
2023/09/24 04:31:32;;;;;;;11.57;7.65;;;10.40;99.90;;;;;;4979460;28;20137;-68
2023/09/24 04:33:57;;;;;;;13.32;9.73;;;10.40;99.90;;;;;;4979078;28;20173;-68
2023/09/24 04:36:23;;;;;;;9.40;6.40;;;10.40;99.90;;;;;;4961864;28;20384;-69
2023/09/24 04:38:49;;;;;;;10.13;6.53;;;10.30;99.90;;;;;;4979061;28;20504;-67
2023/09/24 04:41:18;;;;;;;7.68;5.70;;;10.30;99.90;;;;;;4978485;28;20057;-68
2023/09/24 04:43:45;;;;;;;13.52;8.10;;;10.30;99.90;;;;;;4978882;28;20049;-68
2023/09/24 04:46:11;;;;;;;12.35;8.48;;;10.40;99.90;;;;;;4979105;28;20043;-67
2023/09/24 04:48:37;;;;;;;14.73;10.07;;;10.30;99.90;;;;;;4979046;28;20042;-67
2023/09/24 04:51:02;;;;;;;17.92;11.00;;;10.30;99.90;;;;;;4995093;28;20045;-67
2023/09/24 04:53:28;;;;;;;15.13;10.15;;;10.30;99.90;;;;;;4963166;28;20122;-68
2023/09/24 04:55:54;;;;;;;17.17;11.30;;;10.30;99.90;;;;;;4994876;28;20046;-68
2023/09/24 04:58:21;;;;;;;11.75;9.00;;;10.20;99.90;;;;;;4979183;28;20045;-69
2023/09/24 05:00:48;;;;;;;11.38;7.97;;;10.30;99.90;;;;;;4995077;28;20054;-68
2023/09/24 05:03:16;;;;;;;19.38;12.40;;;10.20;99.90;;;;;;4994999;28;20457;-68
2023/09/24 05:05:45;;;;;;;10.25;6.95;;;10.20;99.90;;;;;;4994817;28;20047;-68
2023/09/24 05:08:11;;;;;;;9.77;6.45;;;10.20;99.90;;;;;;4994663;28;20038;-69
2023/09/24 05:10:40;;;;;;;10.50;6.50;;;10.20;99.90;;;;;;4938538;29;20051;-68
2023/09/24 05:13:06;;;;;;;15.35;10.30;;;10.10;99.90;;;;;;4939204;29;20423;-68
2023/09/24 05:15:32;;;;;;;19.92;12.25;;;10.20;99.90;;;;;;4923006;29;20094;-67
2023/09/24 05:17:58;;;;;;;12.25;8.30;;;10.10;99.90;;;;;;4922986;29;20081;-67
2023/09/24 05:20:24;;;;;;;13.90;9.80;;;10.10;99.90;;;;;;4939023;29;20046;-68
2023/09/24 05:22:49;;;;;;;21.23;13.82;;;10.10;99.90;;;;;;4938768;29;20101;-67
2023/09/24 05:25:15;;;;;;;11.48;6.90;;;10.10;99.90;;;;;;4923116;29;20047;-68
2023/09/24 05:27:41;;;;;;;20.90;14.25;;;10.10;99.90;;;;;;4939091;29;20043;-69
2023/09/24 05:30:11;;;;;;;23.15;13.82;;;10.10;99.90;;;;;;4939008;29;20046;-69
2023/09/24 05:32:37;;;;;;;12.55;8.20;;;10.10;99.90;;;;;;4922904;29;20368;-69
2023/09/24 05:35:03;;;;;;;14.88;10.65;;;10.10;99.90;;;;;;4922803;29;20110;-69
2023/09/24 05:37:29;;;;;;;17.70;10.90;;;10.10;99.90;;;;;;4922747;29;20047;-69
2023/09/24 05:39:56;;;;;;;11.60;8.50;;;10.10;99.90;;;;;;4938282;29;20110;-69
2023/09/24 05:42:22;;;;;;;18.75;12.48;;;10.10;99.90;;;;;;4922313;29;20142;-70
2023/09/24 05:44:48;;;;;;;13.68;9.77;;;10.10;99.90;;;;;;4938303;29;20035;-71
2023/09/24 05:47:14;;;;;;;12.98;8.70;;;10.10;99.90;;;;;;4945767;28;20050;-69
2023/09/24 05:49:40;;;;;;;16.65;10.00;;;10.20;99.90;;;;;;4994161;28;20168;-69
2023/09/24 05:52:06;;;;;;;18.75;12.25;;;10.20;99.90;;;;;;4977677;28;20042;-69
2023/09/24 05:54:31;;;;;;;17.77;11.88;;;10.20;99.90;;;;;;4977883;28;20117;-69
2023/09/24 05:57:01;;;;;;;23.75;13.32;;;10.20;99.90;;;;;;4993618;28;20038;-69
2023/09/24 05:59:27;;;;;;;24.77;14.60;;;10.30;99.90;;;;;;4993862;28;20046;-69
2023/09/24 06:01:53;;;;;;;25.42;15.25;;;10.30;99.90;;;;;;4977651;28;20042;-69
2023/09/24 06:04:19;;;;;;;21.70;14.43;;;10.30;99.90;;;;;;4977469;28;20077;-69
2023/09/24 06:06:44;;;;;;;17.10;12.23;;;10.30;99.90;;;;;;4977799;28;20074;-69
2023/09/24 06:09:10;;;;;;;14.60;10.65;;;10.30;99.90;;;;;;4993424;28;20100;-69
2023/09/24 06:11:37;;;;;;;17.00;12.20;;;10.30;99.90;;;;;;4977585;28;20104;-69
2023/09/24 06:14:08;;;;;;;21.20;15.07;;;10.30;99.90;;;;;;4977667;28;20553;-69
2023/09/24 06:16:36;;;;;;;17.10;12.30;;;10.40;99.90;;;;;;4993498;28;20069;-70
2023/09/24 06:19:02;;;;;;;21.45;14.98;;;10.40;99.90;;;;;;4993478;28;20049;-70
2023/09/24 06:21:28;;;;;;;23.75;14.75;;;10.40;99.90;;;;;;4977209;28;20038;-70
2023/09/24 06:23:55;;;;;;;21.75;15.30;;;10.50;99.90;;;;;;4993195;28;20545;-70
2023/09/24 06:26:21;;;;;;;24.33;16.85;;;10.50;99.90;;;;;;4993038;28;20046;-67
2023/09/24 06:28:48;;;;;;;27.10;17.85;;;10.70;99.90;;;;;;4993495;28;20045;-69
2023/09/24 06:31:16;;;;;;;28.60;17.55;;;10.90;99.90;;;;;;4976945;28;20038;-69
2023/09/24 06:33:42;;;;;;;25.42;16.50;;;11.20;99.90;;;;;;4993815;28;20042;-69
2023/09/24 06:36:09;;;;;;;22.25;14.90;;;11.50;99.90;;;;;;4976446;28;20056;-70
2023/09/24 06:38:36;;;;;;;17.67;13.70;;;11.60;99.90;;;;;;4977157;28;20070;-70
2023/09/24 06:41:03;;;;;;;19.75;15.10;;;12.10;99.90;;;;;;4961109;28;20402;-69
2023/09/24 06:43:30;;;;;;;17.38;13.25;;;12.50;99.90;;;;;;4976626;28;20046;-69
2023/09/24 06:45:56;;;;;;;16.70;11.50;;;12.70;99.90;;;;;;4976471;28;20050;-69
2023/09/24 06:48:23;;;;;;;15.13;11.32;;;13.00;99.90;;;;;;4993027;28;20499;-69
2023/09/24 06:50:50;;;;;;;15.60;10.80;;;13.20;99.90;;;;;;4976591;28;20108;-69
2023/09/24 06:53:16;;;;;;;16.35;11.35;;;13.40;99.90;;;;;;4977113;28;20065;-71
2023/09/24 06:55:42;;;;;;;14.80;10.68;;;13.80;99.90;;;;;;4993025;28;20446;-69
2023/09/24 06:58:08;;;;;;;15.68;12.18;;;14.10;99.90;;;;;;4992740;28;20039;-70
2023/09/24 07:00:37;;;;;;;15.05;11.52;;;14.10;99.90;;;;;;4992055;28;20129;-68
2023/09/24 07:03:05;;;;;;;14.13;10.23;;;14.00;99.90;;;;;;4977314;28;20117;-70
2023/09/24 07:05:31;;;;;;;17.08;10.38;;;13.80;99.90;;;;;;4992986;28;20034;-67
2023/09/24 07:07:57;;;;;;;16.10;11.48;;;13.60;99.90;;;;;;4993517;28;20077;-69
2023/09/24 07:10:24;;;;;;;15.35;11.23;;;13.50;99.90;;;;;;4993515;28;20047;-69
2023/09/24 07:12:51;;;;;;;18.70;12.63;;;13.20;99.90;;;;;;4992854;28;20055;-69
2023/09/24 07:15:17;;;;;;;19.55;11.75;;;13.20;99.90;;;;;;4992582;28;20049;-69
2023/09/24 07:17:55;;;;;;;21.42;13.23;;;13.10;99.90;;;;;;4992915;28;20039;-69
2023/09/24 07:20:24;;;;;;;16.73;12.30;;;13.10;99.90;;;;;;4992892;28;20122;-68
2023/09/24 07:22:53;;;;;;;17.33;13.32;;;13.10;99.90;;;;;;4962023;28;20035;-69
2023/09/24 07:25:21;;;;;;;15.40;11.55;;;13.00;99.90;;;;;;4976315;28;20479;-69
2023/09/24 07:27:47;;;;;;;20.05;13.75;;;13.00;99.90;;;;;;4976666;28;20042;-68
2023/09/24 07:30:14;;;;;;;16.35;12.95;;;12.90;99.90;;;;;;4976705;28;20045;-67
2023/09/24 07:32:40;;;;;;;18.77;13.10;;;12.90;99.90;;;;;;4992533;28;20042;-69
2023/09/24 07:35:08;;;;;;;16.90;12.75;;;12.80;99.90;;;;;;4977040;28;20048;-69
2023/09/24 07:37:34;;;;;;;17.70;12.68;;;12.80;99.90;;;;;;4977060;28;20043;-69
2023/09/24 07:40:02;;;;;;;17.85;13.50;;;12.80;99.90;;;;;;4960703;28;20491;-69
2023/09/24 07:42:28;;;;;;;18.40;13.32;;;12.80;99.90;;;;;;4945234;28;20039;-70
2023/09/24 07:44:54;;;;;;;17.90;12.45;;;12.80;99.90;;;;;;4992597;28;20190;-68
2023/09/24 07:47:20;;;;;;;20.85;13.45;;;12.80;99.90;;;;;;4976389;28;20125;-69
2023/09/24 07:49:46;;;;;;;20.90;14.00;;;12.90;99.90;;;;;;4976230;28;20214;-69
2023/09/24 07:52:12;;;;;;;18.63;13.98;;;12.90;99.90;;;;;;4992212;28;20129;-70
2023/09/24 07:54:38;;;;;;;17.25;13.32;;;12.90;99.90;;;;;;4959886;28;20129;-70
2023/09/24 07:57:04;;;;;;;20.52;13.32;;;13.00;99.90;;;;;;4992427;28;20042;-70
2023/09/24 07:59:30;;;;;;;20.45;14.13;;;13.00;99.90;;;;;;4976410;28;20085;-69
2023/09/24 08:02:01;;;;;;;18.92;13.25;;;13.00;99.90;;;;;;4959844;28;20085;-69
2023/09/24 08:04:27;;;;;;;18.23;13.87;;;13.00;99.90;;;;;;4976654;28;20469;-69
2023/09/24 08:06:56;;;;;;;19.02;13.50;;;13.10;99.90;;;;;;4992486;28;20046;-70
2023/09/24 08:09:25;;;;;;;18.38;13.27;;;13.20;99.90;;;;;;4976386;28;20081;-69
2023/09/24 08:11:51;;;;;;;16.75;13.05;;;13.20;99.90;;;;;;4993292;28;20042;-69
2023/09/24 08:14:17;;;;;;;18.73;13.32;;;13.20;99.90;;;;;;4979916;28;20042;-69
2023/09/24 08:19:35;;;;;;;;;;;13.30;99.90;;;;;;4982148;28;20054;-68
2023/09/24 08:22:01;;;;;;;18.33;12.52;;;13.40;99.90;;;;;;4996039;28;19924;-71
2023/09/24 08:24:27;;;;;;;18.23;11.90;;;13.40;99.90;;;;;;4979507;28;20030;-68
2023/09/24 08:26:53;;;;;;;16.52;11.60;;;13.50;99.90;;;;;;4979167;28;20491;-67
2023/09/24 08:29:20;;;;;;;19.05;11.55;;;13.50;99.90;;;;;;4963300;28;20053;-68
2023/09/24 08:31:46;;;;;;;14.63;11.25;;;13.60;99.90;;;;;;4995796;28;20038;-68
2023/09/24 08:34:12;;;;;;;17.23;11.95;;;13.70;99.90;;;;;;4995762;28;20513;-68
2023/09/24 08:36:38;;;;;;;15.40;11.00;;;13.90;99.90;;;;;;4978735;28;20360;-68
2023/09/24 08:39:18;;;;;;;15.63;10.90;;;14.00;99.90;;;;;;4995185;28;20458;-70
2023/09/24 08:41:44;;;;;;;16.65;11.35;;;14.20;99.90;;;;;;4978841;28;20089;-69
2023/09/24 08:44:24;;;;;;;16.23;11.68;;;14.40;99.90;;;;;;4962751;28;20042;-69
2023/09/24 08:46:51;;;;;;;16.23;10.23;;;14.60;99.90;;;;;;4995063;28;20109;-69
2023/09/24 08:49:18;;;;;;;12.63;9.43;;;14.80;99.90;;;;;;4994918;28;20046;-69
2023/09/24 08:51:51;;;;;;;14.85;9.63;;;15.00;99.90;;;;;;4978627;28;20105;-68
2023/09/24 08:54:17;;;;;;;14.43;8.98;;;15.10;99.90;;;;;;4995500;28;20049;-69
2023/09/24 08:56:43;;;;;;;14.20;8.10;;;15.30;99.90;;;;;;4994886;28;20402;-69
2023/09/24 08:59:08;;;;;;;13.55;8.40;;;15.50;99.90;;;;;;4979184;28;20125;-69
2023/09/24 09:01:35;;;;;;;12.73;7.38;;;15.70;99.90;;;;;;4994677;28;20046;-69
2023/09/24 09:04:01;;;;;;;11.25;8.00;;;15.90;99.90;;;;;;4994624;28;20133;-69
2023/09/24 09:06:35;;;;;;;12.00;7.10;;;16.10;99.90;;;;;;4978482;28;20499;-69
2023/09/24 09:09:02;;;;;;;12.70;7.32;;;16.30;99.90;;;;;;4977906;28;20486;-69
2023/09/24 09:11:45;;;;;;;12.40;6.97;;;16.40;99.90;;;;;;4978358;28;20136;-70
2023/09/24 09:14:11;;;;;;;11.07;6.47;;;16.60;99.90;;;;;;4994502;28;20125;-69
2023/09/24 09:16:55;;;;;;;12.45;6.70;;;16.70;99.90;;;;;;4994201;28;20096;-68
2023/09/24 09:19:22;;;;;;;10.27;6.70;;;16.80;99.90;;;;;;4995747;28;20076;-67
2023/09/24 09:21:47;;;;;;;13.65;6.65;;;16.80;99.90;;;;;;4994206;28;20042;-70
2023/09/24 09:24:23;;;;;;;10.65;6.15;;;17.00;99.90;;;;;;4977433;28;20049;-69
2023/09/24 09:26:56;;;;;;;11.90;6.32;;;17.20;99.90;;;;;;4978005;28;20118;-70
2023/09/24 09:29:27;;;;;;;11.55;5.82;;;17.30;99.90;;;;;;4977792;28;20085;-69
2023/09/24 09:31:54;;;;;;;11.60;5.40;;;17.50;99.90;;;;;;4978079;28;20034;-69
2023/09/24 09:34:21;;;;;;;11.60;5.25;;;17.60;99.90;;;;;;4994075;28;20285;-70
2023/09/24 09:36:47;;;;;;;10.02;4.80;;;17.70;99.90;;;;;;4993842;28;20061;-69
2023/09/24 09:39:13;;;;;;;9.00;4.65;;;17.80;99.90;;;;;;4977792;28;20042;-69
2023/09/24 09:41:45;;;;;;;10.35;5.00;;;17.90;99.90;;;;;;4993847;28;20177;-69
2023/09/24 09:44:15;;;;;;;10.15;4.60;;;17.90;99.90;;;;;;4994109;28;20042;-70
2023/09/24 09:46:45;;;;;;;8.90;3.63;;;18.00;99.90;;;;;;4978109;28;20049;-69
2023/09/24 09:49:13;;;;;;;11.05;3.75;;;18.10;99.90;;;;;;4993704;28;20042;-70
2023/09/24 09:51:41;;;;;;;9.23;3.25;;;18.20;99.90;;;;;;4993646;28;20042;-68
2023/09/24 09:54:10;;;;;;;9.63;3.53;;;18.30;99.90;;;;;;4993850;28;20525;-69
2023/09/24 09:56:36;;;;;;;7.68;2.92;;;18.30;99.90;;;;;;4993509;28;20049;-69
2023/09/24 09:59:06;;;;;;;10.80;3.50;;;18.50;99.90;;;;;;4993489;28;20061;-67
2023/09/24 10:01:31;;;;;;;8.70;3.10;;;18.50;99.90;;;;;;4993813;28;20038;-69
2023/09/24 10:04:00;;;;;;;8.63;2.95;;;18.70;99.90;;;;;;4961110;28;20121;-67
2023/09/24 10:06:28;;;;;;;9.93;2.90;;;18.80;99.90;;;;;;4993429;28;20046;-67
2023/09/24 10:08:54;;;;;;;8.38;2.97;;;18.80;99.90;;;;;;4977395;28;20537;-67
2023/09/24 10:11:43;;;;;;;9.50;3.47;;;18.90;99.90;;;;;;4976614;28;20495;-67
2023/09/24 10:14:10;;;;;;;8.40;3.70;;;18.90;99.90;;;;;;4987904;28;20096;-70
2023/09/24 10:16:38;;;;;;;8.38;3.20;;;18.90;99.90;;;;;;4977256;28;20050;-68
2023/09/24 10:19:20;;;;;;;7.05;3.05;;;18.90;99.90;;;;;;4993220;28;20050;-68
2023/09/24 10:21:48;;;;;;;8.30;3.10;;;19.00;99.90;;;;;;4977545;28;20394;-69
2023/09/24 10:24:14;;;;;;;10.05;3.50;;;19.10;99.90;;;;;;4976866;28;20038;-70
2023/09/24 10:27:03;;;;;;;9.18;3.20;;;19.10;99.90;;;;;;4993237;28;20407;-68
2023/09/24 10:29:45;;;;;;;7.32;2.90;;;19.10;99.90;;;;;;4977406;28;20104;-69
2023/09/24 10:32:13;;;;;;;8.93;3.00;;;19.20;99.90;;;;;;4993061;28;20042;-69
2023/09/24 10:34:57;;;;;;;8.48;3.05;;;19.30;99.90;;;;;;4992694;28;20061;-68
2023/09/24 10:37:30;;;;;;;8.93;2.88;;;19.30;99.90;;;;;;4992899;28;20081;-69
2023/09/24 10:40:05;;;;;;;7.95;2.95;;;19.30;99.90;;;;;;4976760;28;20092;-68
2023/09/24 10:42:33;;;;;;;7.78;3.20;;;19.30;99.90;;;;;;4993354;28;20438;-69
2023/09/24 10:45:08;;;;;;;7.10;2.63;;;19.20;99.90;;;;;;4993986;28;20034;-68
2023/09/24 10:47:38;;;;;;;7.20;2.63;;;19.20;99.90;;;;;;4992876;28;20045;-69
2023/09/24 10:50:37;;;;;;;6.68;2.22;;;19.20;99.90;;;;;;4993236;28;20038;-69
2023/09/24 10:53:03;;;;;;;8.25;2.30;;;19.30;99.90;;;;;;4989782;28;20054;-68
2023/09/24 10:55:34;;;;;;;6.75;2.10;;;19.30;99.90;;;;;;4976471;28;20105;-69
2023/09/24 10:58:01;;;;;;;9.27;2.08;;;19.40;99.90;;;;;;4992547;28;20054;-65
2023/09/24 11:00:41;;;;;;;9.73;3.22;;;19.30;99.90;;;;;;4992692;28;20038;-65
2023/09/24 11:03:19;;;;;;;7.43;2.30;;;19.30;99.90;;;;;;4976901;28;20054;-66
2023/09/24 11:05:49;;;;;;;8.05;2.08;;;19.40;99.90;;;;;;4992585;28;20038;-66
2023/09/24 11:08:17;;;;;;;11.68;3.97;;;19.40;99.90;;;;;;4992905;28;20130;-66
2023/09/24 11:10:49;;;;;;;11.18;3.08;;;19.50;99.90;;;;;;4992211;28;20054;-65
2023/09/24 11:13:16;;;;;;;6.15;1.90;;;19.60;99.90;;;;;;4992541;28;20054;-65
2023/09/24 11:15:42;;;;;;;7.40;2.25;;;19.60;99.90;;;;;;4992545;28;20125;-65
2023/09/24 11:18:11;;;;;;;8.43;3.10;;;19.60;99.90;;;;;;4992773;28;20475;-65
2023/09/24 11:20:48;;;;;;;6.00;1.88;;;19.60;99.90;;;;;;4992798;28;20105;-66
2023/09/24 11:23:18;;;;;;;6.28;1.88;;;19.60;99.90;;;;;;4992695;28;20495;-65
2023/09/24 11:25:49;;;;;;;7.50;1.90;;;19.60;99.90;;;;;;4976117;28;20046;-66
2023/09/24 11:28:30;;;;;;;6.20;2.00;;;19.50;99.90;;;;;;4961514;28;20387;-65
2023/09/24 11:30:56;;;;;;;6.68;2.00;;;19.40;99.90;;;;;;4992718;28;20046;-65
2023/09/24 11:33:23;;;;;;;5.80;1.92;;;19.50;99.90;;;;;;4976035;28;20045;-65
2023/09/24 11:35:55;;;;;;;5.55;1.80;;;19.50;99.90;;;;;;4992376;28;20050;-66
2023/09/24 11:38:31;;;;;;;;;;;19.50;99.90;;;;;;4994130;28;20042;-66
2023/09/24 11:41:09;;;;;;;6.93;1.80;;;19.50;99.90;;;;;;4976193;28;19953;-67
2023/09/24 11:43:36;;;;;;;7.35;1.90;;;19.60;99.90;;;;;;4992265;28;20065;-67
2023/09/24 11:46:02;;;;;;;6.65;1.65;;;19.60;99.90;;;;;;4993569;28;20471;-66
2023/09/24 11:48:29;;;;;;;6.22;1.80;;;19.70;99.90;;;;;;4979617;28;20074;-67
2023/09/24 11:50:58;;;;;;;6.95;1.73;;;19.80;99.90;;;;;;4996214;28;20050;-66
2023/09/24 11:53:28;;;;;;;6.55;1.90;;;19.90;99.90;;;;;;4980096;28;20038;-67
2023/09/24 11:56:05;;;;;;;6.38;1.60;;;19.80;99.90;;;;;;4979979;28;20612;-66
2023/09/24 11:58:33;;;;;;;5.97;1.70;;;19.80;99.90;;;;;;4995972;28;20035;-66
2023/09/24 12:01:01;;;;;;;5.88;1.80;;;19.70;99.80;;;;;;4979615;28;20514;-66
2023/09/24 12:03:27;;;;;;;7.75;1.80;;;19.80;99.90;;;;;;4979617;28;20402;-66
2023/09/24 12:05:53;;;;;;;5.90;1.80;;;19.80;99.90;;;;;;4995580;28;20039;-68
2023/09/24 12:08:19;;;;;;;5.28;1.77;;;19.80;99.90;;;;;;4979498;28;20483;-67
2023/09/24 12:10:52;;;;;;;5.95;1.80;;;19.80;99.90;;;;;;4976829;28;20488;-68
2023/09/24 12:13:18;;;;;;;6.97;1.88;;;19.80;99.90;;;;;;4995531;28;20038;-68
2023/09/24 12:15:45;;;;;;;5.60;1.80;;;19.90;99.90;;;;;;4979241;28;20073;-67
2023/09/24 12:18:11;;;;;;;6.20;1.70;;;19.90;99.90;;;;;;4979345;28;20079;-68
2023/09/24 12:20:42;;;;;;;6.20;1.80;;;19.90;99.90;;;;;;4979532;28;20483;-68
2023/09/24 12:23:12;;;;;;;5.43;1.67;;;19.90;99.90;;;;;;4964143;28;20552;-67
2023/09/24 12:25:40;;;;;;;5.22;1.60;;;19.90;99.90;;;;;;4979005;28;20042;-68
2023/09/24 12:28:08;;;;;;;5.95;1.75;;;19.90;99.90;;;;;;4979310;28;20049;-67
2023/09/24 12:30:35;;;;;;;5.78;1.70;;;20.00;99.90;;;;;;4995035;28;20121;-68
2023/09/24 12:33:01;;;;;;;7.63;1.77;;;20.10;99.90;;;;;;4978879;28;20447;-67
2023/09/24 12:35:28;;;;;;;6.13;1.80;;;20.10;99.90;;;;;;4978990;28;20141;-66
2023/09/24 12:37:54;;;;;;;5.20;1.80;;;20.10;99.90;;;;;;4979412;28;20042;-66
2023/09/24 12:40:21;;;;;;;5.53;1.73;;;20.10;99.90;;;;;;4978874;28;20133;-67
2023/09/24 12:42:47;;;;;;;6.82;1.70;;;20.10;99.90;;;;;;4995078;28;20097;-66
2023/09/24 12:45:13;;;;;;;5.22;1.70;;;20.10;99.90;;;;;;4996332;28;20026;-66
2023/09/24 12:47:40;;;;;;;4.85;1.60;;;20.10;99.90;;;;;;4994857;28;20085;-67